Terminal Aerodrome Forecast
Issued by NWS

Current Version | Previous Version | Text Only | Print | Product List | Glossary On
Versions: 1 2 3 4 5 6 7 8 9 10 11 12 13 14 15 16 17 18 19 20 21 22 23 24
000
FTUS42 KMLB 241128
TAFFPR
TAF
KFPR 241128Z 2412/2512 06008KT P6SM VCSH SCT025 SCT035
      TEMPO 2412/2413 5SM SHRA BKN025
     FM241400 04011KT P6SM VCSH SCT020 BKN050 BKN250
     FM242000 03012KT P6SM SCT025 SCT050 BKN250
     FM250100 03007KT P6SM SCT025 SCT250=

USA.gov is the U.S. government's official web portal to all federal, state and local government web resources and services.